sensor_id;sensor_type;location;lat;lon;timestamp;pressure;altitude;pressure_sealevel;temperature;humidity
19526;BME280;9907;42.676;26.348;2023-08-24T00:01:07;98830.59;;;26.23;53.85
19526;BME280;9907;42.676;26.348;2023-08-24T00:03:34;98830.69;;;26.28;53.19
19526;BME280;9907;42.676;26.348;2023-08-24T00:05:59;98834.41;;;26.22;53.81
19526;BME280;9907;42.676;26.348;2023-08-24T00:08:25;98837.81;;;26.17;54.07
19526;BME280;9907;42.676;26.348;2023-08-24T00:10:50;98823.78;;;26.13;54.35
19526;BME280;9907;42.676;26.348;2023-08-24T00:13:16;98822.97;;;26.25;54.20
19526;BME280;9907;42.676;26.348;2023-08-24T00:15:41;98818.16;;;26.32;53.32
19526;BME280;9907;42.676;26.348;2023-08-24T00:18:07;98817.91;;;26.45;53.31
19526;BME280;9907;42.676;26.348;2023-08-24T00:20:33;98818.22;;;26.48;52.79
19526;BME280;9907;42.676;26.348;2023-08-24T00:22:59;98819.16;;;26.54;52.98
19526;BME280;9907;42.676;26.348;2023-08-24T00:25:24;98810.88;;;26.66;52.44
19526;BME280;9907;42.676;26.348;2023-08-24T00:27:53;98808.31;;;26.31;53.18
19526;BME280;9907;42.676;26.348;2023-08-24T00:30:18;98810.72;;;26.15;53.66
19526;BME280;9907;42.676;26.348;2023-08-24T00:32:44;98815.34;;;26.15;53.53
19526;BME280;9907;42.676;26.348;2023-08-24T00:35:10;98814.50;;;26.26;54.04
19526;BME280;9907;42.676;26.348;2023-08-24T00:37:36;98817.06;;;26.04;54.24
19526;BME280;9907;42.676;26.348;2023-08-24T00:40:03;98814.34;;;25.93;54.48
19526;BME280;9907;42.676;26.348;2023-08-24T00:42:47;98810.88;;;25.97;54.01
19526;BME280;9907;42.676;26.348;2023-08-24T00:45:12;98812.19;;;25.83;54.34
19526;BME280;9907;42.676;26.348;2023-08-24T00:47:40;98826.59;;;25.90;54.91
19526;BME280;9907;42.676;26.348;2023-08-24T00:50:11;98813.38;;;25.87;54.53
19526;BME280;9907;42.676;26.348;2023-08-24T00:52:43;98802.94;;;25.73;55.24
19526;BME280;9907;42.676;26.348;2023-08-24T00:55:12;98804.47;;;25.80;54.33
19526;BME280;9907;42.676;26.348;2023-08-24T00:57:39;98799.69;;;25.87;55.09
19526;BME280;9907;42.676;26.348;2023-08-24T01:00:07;98796.41;;;25.85;54.91
19526;BME280;9907;42.676;26.348;2023-08-24T01:02:39;98792.41;;;25.64;54.74
19526;BME280;9907;42.676;26.348;2023-08-24T01:05:05;98781.91;;;25.73;54.79
19526;BME280;9907;42.676;26.348;2023-08-24T01:07:32;98781.38;;;25.88;54.25
19526;BME280;9907;42.676;26.348;2023-08-24T01:10:03;98789.16;;;25.79;55.06
19526;BME280;9907;42.676;26.348;2023-08-24T01:15:21;98782.16;;;25.48;55.33
19526;BME280;9907;42.676;26.348;2023-08-24T01:17:52;98775.34;;;25.51;55.60
19526;BME280;9907;42.676;26.348;2023-08-24T01:20:21;98777.91;;;25.52;55.41
19526;BME280;9907;42.676;26.348;2023-08-24T01:23:18;98779.19;;;25.61;55.50
19526;BME280;9907;42.676;26.348;2023-08-24T01:26:33;98779.88;;;25.68;54.83
19526;BME280;9907;42.676;26.348;2023-08-24T01:28:42;98775.84;;;25.71;54.70
19526;BME280;9907;42.676;26.348;2023-08-24T01:31:08;98776.94;;;25.58;55.46
19526;BME280;9907;42.676;26.348;2023-08-24T01:33:34;98776.19;;;25.40;56.40
19526;BME280;9907;42.676;26.348;2023-08-24T01:35:59;98771.22;;;25.37;56.59
19526;BME280;9907;42.676;26.348;2023-08-24T01:38:25;98767.78;;;25.41;55.95
19526;BME280;9907;42.676;26.348;2023-08-24T01:41:12;98766.69;;;25.54;55.46
19526;BME280;9907;42.676;26.348;2023-08-24T01:43:39;98766.66;;;25.77;54.81
19526;BME280;9907;42.676;26.348;2023-08-24T01:46:07;98766.28;;;25.85;55.05
19526;BME280;9907;42.676;26.348;2023-08-24T01:48:36;98753.44;;;25.86;54.91
19526;BME280;9907;42.676;26.348;2023-08-24T01:51:02;98755.91;;;25.99;54.74
19526;BME280;9907;42.676;26.348;2023-08-24T01:53:31;98747.06;;;26.08;54.25
19526;BME280;9907;42.676;26.348;2023-08-24T01:55:57;98744.34;;;26.08;53.98
19526;BME280;9907;42.676;26.348;2023-08-24T01:58:23;98754.69;;;26.06;54.34
19526;BME280;9907;42.676;26.348;2023-08-24T02:00:51;98745.81;;;25.88;54.19
19526;BME280;9907;42.676;26.348;2023-08-24T02:03:17;98747.66;;;25.71;54.68
19526;BME280;9907;42.676;26.348;2023-08-24T02:05:42;98744.22;;;25.63;55.31
19526;BME280;9907;42.676;26.348;2023-08-24T02:08:08;98742.44;;;25.57;55.58
19526;BME280;9907;42.676;26.348;2023-08-24T02:10:33;98744.94;;;25.47;55.73
19526;BME280;9907;42.676;26.348;2023-08-24T02:12:59;98741.28;;;25.42;56.02
19526;BME280;9907;42.676;26.348;2023-08-24T02:15:27;98743.53;;;25.56;55.82
19526;BME280;9907;42.676;26.348;2023-08-24T02:17:54;98738.56;;;25.53;55.44
19526;BME280;9907;42.676;26.348;2023-08-24T02:20:20;98744.00;;;25.42;55.83
19526;BME280;9907;42.676;26.348;2023-08-24T02:22:46;98733.66;;;25.32;56.55
19526;BME280;9907;42.676;26.348;2023-08-24T02:25:11;98741.84;;;25.32;55.89
19526;BME280;9907;42.676;26.348;2023-08-24T02:27:37;98732.25;;;25.30;56.55
19526;BME280;9907;42.676;26.348;2023-08-24T02:30:02;98732.59;;;25.22;56.70
19526;BME280;9907;42.676;26.348;2023-08-24T02:32:31;98739.84;;;25.28;56.73
19526;BME280;9907;42.676;26.348;2023-08-24T02:34:57;98737.09;;;25.28;56.85
19526;BME280;9907;42.676;26.348;2023-08-24T02:37:22;98738.06;;;25.10;56.80
19526;BME280;9907;42.676;26.348;2023-08-24T02:39:48;98741.88;;;24.97;57.55
19526;BME280;9907;42.676;26.348;2023-08-24T02:42:13;98739.16;;;24.97;57.42
19526;BME280;9907;42.676;26.348;2023-08-24T02:44:39;98737.59;;;24.90;57.13
19526;BME280;9907;42.676;26.348;2023-08-24T02:47:04;98743.06;;;24.90;57.63
19526;BME280;9907;42.676;26.348;2023-08-24T02:49:30;98740.34;;;25.01;56.79
19526;BME280;9907;42.676;26.348;2023-08-24T02:51:55;98738.66;;;25.00;57.16
19526;BME280;9907;42.676;26.348;2023-08-24T02:54:21;98739.38;;;24.96;56.64
19526;BME280;9907;42.676;26.348;2023-08-24T02:56:46;98738.66;;;24.89;57.31
19526;BME280;9907;42.676;26.348;2023-08-24T02:59:12;98738.78;;;24.94;57.56
19526;BME280;9907;42.676;26.348;2023-08-24T03:01:40;98733.19;;;25.00;56.99
19526;BME280;9907;42.676;26.348;2023-08-24T03:04:08;98737.25;;;24.98;57.35
19526;BME280;9907;42.676;26.348;2023-08-24T03:06:34;98726.19;;;25.16;57.31
19526;BME280;9907;42.676;26.348;2023-08-24T03:09:02;98739.63;;;24.94;57.86
19526;BME280;9907;42.676;26.348;2023-08-24T03:11:30;98737.59;;;24.90;57.56
19526;BME280;9907;42.676;26.348;2023-08-24T03:13:59;98734.44;;;24.63;59.05
19526;BME280;9907;42.676;26.348;2023-08-24T03:16:26;98737.31;;;24.68;58.87
19526;BME280;9907;42.676;26.348;2023-08-24T03:18:51;98743.66;;;24.50;59.09
19526;BME280;9907;42.676;26.348;2023-08-24T03:21:23;98742.56;;;24.40;58.18
19526;BME280;9907;42.676;26.348;2023-08-24T03:23:51;98747.84;;;24.53;58.26
19526;BME280;9907;42.676;26.348;2023-08-24T03:26:17;98743.56;;;24.57;58.29
19526;BME280;9907;42.676;26.348;2023-08-24T03:28:45;98745.22;;;24.58;58.02
19526;BME280;9907;42.676;26.348;2023-08-24T03:31:11;98737.63;;;24.60;58.34
19526;BME280;9907;42.676;26.348;2023-08-24T03:33:36;98747.03;;;24.64;58.43
19526;BME280;9907;42.676;26.348;2023-08-24T03:36:11;98739.06;;;24.62;58.51
19526;BME280;9907;42.676;26.348;2023-08-24T03:38:36;98745.91;;;24.42;58.59
19526;BME280;9907;42.676;26.348;2023-08-24T03:41:03;98739.72;;;24.35;59.25
19526;BME280;9907;42.676;26.348;2023-08-24T03:43:32;98743.19;;;24.42;58.52
19526;BME280;9907;42.676;26.348;2023-08-24T03:48:24;98747.13;;;24.46;58.14
19526;BME280;9907;42.676;26.348;2023-08-24T03:50:49;98758.78;;;24.05;59.59
19526;BME280;9907;42.676;26.348;2023-08-24T03:53:17;98757.28;;;24.09;59.83
19526;BME280;9907;42.676;26.348;2023-08-24T03:55:47;98751.75;;;24.15;59.65
19526;BME280;9907;42.676;26.348;2023-08-24T03:58:13;98751.28;;;24.18;59.23
19526;BME280;9907;42.676;26.348;2023-08-24T04:00:38;98761.50;;;24.23;60.07
19526;BME280;9907;42.676;26.348;2023-08-24T04:03:04;98761.19;;;24.31;59.08
19526;BME280;9907;42.676;26.348;2023-08-24T04:05:30;98758.56;;;24.36;59.09
19526;BME280;9907;42.676;26.348;2023-08-24T04:07:55;98752.91;;;24.38;59.58
19526;BME280;9907;42.676;26.348;2023-08-24T04:10:21;98764.59;;;24.27;59.99
19526;BME280;9907;42.676;26.348;2023-08-24T04:12:46;98757.47;;;24.26;59.99
19526;BME280;9907;42.676;26.348;2023-08-24T04:15:12;98755.44;;;24.21;59.70
19526;BME280;9907;42.676;26.348;2023-08-24T04:17:38;98764.09;;;24.00;60.84
19526;BME280;9907;42.676;26.348;2023-08-24T04:20:03;98763.53;;;23.80;61.26
19526;BME280;9907;42.676;26.348;2023-08-24T04:22:31;98762.13;;;23.89;61.81
19526;BME280;9907;42.676;26.348;2023-08-24T04:24:57;98769.41;;;23.95;61.51
19526;BME280;9907;42.676;26.348;2023-08-24T04:27:22;98764.00;;;24.06;61.71
19526;BME280;9907;42.676;26.348;2023-08-24T04:29:48;98767.81;;;24.05;61.29
19526;BME280;9907;42.676;26.348;2023-08-24T04:32:14;98760.59;;;24.11;61.08
19526;BME280;9907;42.676;26.348;2023-08-24T04:34:39;98771.34;;;24.06;61.22
19526;BME280;9907;42.676;26.348;2023-08-24T04:37:06;98766.97;;;24.23;61.28
19526;BME280;9907;42.676;26.348;2023-08-24T04:39:32;98763.66;;;24.33;61.11
19526;BME280;9907;42.676;26.348;2023-08-24T04:41:57;98763.94;;;24.43;60.67
19526;BME280;9907;42.676;26.348;2023-08-24T04:44:23;98769.53;;;24.48;60.29
19526;BME280;9907;42.676;26.348;2023-08-24T04:46:49;98770.63;;;24.58;59.94
19526;BME280;9907;42.676;26.348;2023-08-24T04:49:15;98776.59;;;24.67;59.28
19526;BME280;9907;42.676;26.348;2023-08-24T04:51:40;98774.72;;;24.79;59.69
19526;BME280;9907;42.676;26.348;2023-08-24T04:54:06;98777.97;;;24.99;59.28
19526;BME280;9907;42.676;26.348;2023-08-24T04:56:31;98769.56;;;25.12;58.62
19526;BME280;9907;42.676;26.348;2023-08-24T04:58:58;98775.38;;;25.28;57.97
19526;BME280;9907;42.676;26.348;2023-08-24T05:01:29;98774.31;;;25.52;56.89
19526;BME280;9907;42.676;26.348;2023-08-24T05:03:59;98781.56;;;25.58;56.58
19526;BME280;9907;42.676;26.348;2023-08-24T05:06:25;98778.25;;;25.67;56.22
19526;BME280;9907;42.676;26.348;2023-08-24T05:08:50;98780.81;;;25.86;55.28
19526;BME280;9907;42.676;26.348;2023-08-24T05:11:21;98778.34;;;26.12;55.06
19526;BME280;9907;42.676;26.348;2023-08-24T05:13:47;98776.50;;;26.01;55.31
19526;BME280;9907;42.676;26.348;2023-08-24T05:16:13;98783.53;;;25.97;55.43
19526;BME280;9907;42.676;26.348;2023-08-24T05:18:39;98780.16;;;26.07;56.02
19526;BME280;9907;42.676;26.348;2023-08-24T05:21:05;98798.91;;;26.27;55.10
19526;BME280;9907;42.676;26.348;2023-08-24T05:23:34;98790.84;;;26.48;54.40
19526;BME280;9907;42.676;26.348;2023-08-24T05:26:01;98797.09;;;26.60;54.93
19526;BME280;9907;42.676;26.348;2023-08-24T05:28:28;98795.16;;;26.61;54.63
19526;BME280;9907;42.676;26.348;2023-08-24T05:30:54;98806.75;;;26.80;53.85
19526;BME280;9907;42.676;26.348;2023-08-24T05:33:21;98805.72;;;26.97;53.19
19526;BME280;9907;42.676;26.348;2023-08-24T05:35:47;98803.81;;;27.15;52.46
19526;BME280;9907;42.676;26.348;2023-08-24T05:38:14;98800.16;;;27.26;52.36
19526;BME280;9907;42.676;26.348;2023-08-24T05:40:39;98797.06;;;27.05;52.91
19526;BME280;9907;42.676;26.348;2023-08-24T05:43:06;98804.38;;;27.17;53.17
19526;BME280;9907;42.676;26.348;2023-08-24T05:45:32;98810.53;;;27.40;52.05
19526;BME280;9907;42.676;26.348;2023-08-24T05:47:57;98803.94;;;27.58;51.70
19526;BME280;9907;42.676;26.348;2023-08-24T05:50:23;98814.88;;;27.53;52.31
19526;BME280;9907;42.676;26.348;2023-08-24T05:52:48;98817.66;;;27.58;51.21
19526;BME280;9907;42.676;26.348;2023-08-24T05:55:17;98809.03;;;27.49;52.86
19526;BME280;9907;42.676;26.348;2023-08-24T05:57:42;98815.16;;;27.40;53.01
19526;BME280;9907;42.676;26.348;2023-08-24T06:00:08;98820.59;;;27.51;52.37
19526;BME280;9907;42.676;26.348;2023-08-24T06:02:37;98825.22;;;27.68;51.39
19526;BME280;9907;42.676;26.348;2023-08-24T06:05:03;98819.22;;;27.71;51.93
19526;BME280;9907;42.676;26.348;2023-08-24T06:07:29;98822.97;;;27.65;51.64
19526;BME280;9907;42.676;26.348;2023-08-24T06:09:56;98826.34;;;27.88;52.07
19526;BME280;9907;42.676;26.348;2023-08-24T06:12:21;98825.06;;;27.96;51.30
19526;BME280;9907;42.676;26.348;2023-08-24T06:14:47;98826.84;;;28.07;51.57
19526;BME280;9907;42.676;26.348;2023-08-24T06:17:12;98826.75;;;28.19;50.66
19526;BME280;9907;42.676;26.348;2023-08-24T06:19:38;98828.28;;;28.10;50.92
19526;BME280;9907;42.676;26.348;2023-08-24T06:22:03;98831.50;;;28.06;51.18
19526;BME280;9907;42.676;26.348;2023-08-24T06:24:28;98834.69;;;28.15;51.46
19526;BME280;9907;42.676;26.348;2023-08-24T06:26:54;98834.28;;;28.28;49.78
19526;BME280;9907;42.676;26.348;2023-08-24T06:29:19;98834.03;;;28.30;50.70
19526;BME280;9907;42.676;26.348;2023-08-24T06:31:45;98835.19;;;28.34;50.11
19526;BME280;9907;42.676;26.348;2023-08-24T06:34:10;98836.97;;;28.23;50.20
19526;BME280;9907;42.676;26.348;2023-08-24T06:36:36;98838.91;;;28.06;50.03
19526;BME280;9907;42.676;26.348;2023-08-24T06:39:02;98838.19;;;28.11;50.30
19526;BME280;9907;42.676;26.348;2023-08-24T06:41:33;98845.66;;;28.37;49.49
19526;BME280;9907;42.676;26.348;2023-08-24T06:43:58;98842.38;;;28.40;49.89
19526;BME280;9907;42.676;26.348;2023-08-24T06:46:24;98841.56;;;28.18;49.52
19526;BME280;9907;42.676;26.348;2023-08-24T06:48:49;98834.31;;;28.55;49.26
19526;BME280;9907;42.676;26.348;2023-08-24T06:51:15;98843.47;;;28.87;49.37
19526;BME280;9907;42.676;26.348;2023-08-24T06:53:41;98829.81;;;28.97;48.10
19526;BME280;9907;42.676;26.348;2023-08-24T06:56:08;98839.19;;;29.01;49.23
19526;BME280;9907;42.676;26.348;2023-08-24T06:58:34;98836.69;;;28.95;48.63
19526;BME280;9907;42.676;26.348;2023-08-24T07:01:00;98840.94;;;29.08;48.51
19526;BME280;9907;42.676;26.348;2023-08-24T07:03:26;98838.88;;;29.25;49.31
19526;BME280;9907;42.676;26.348;2023-08-24T07:05:51;98831.44;;;29.25;47.68
19526;BME280;9907;42.676;26.348;2023-08-24T07:08:17;98842.63;;;29.14;47.79
19526;BME280;9907;42.676;26.348;2023-08-24T07:10:43;98844.16;;;29.31;47.84
19526;BME280;9907;42.676;26.348;2023-08-24T07:13:09;98835.38;;;29.29;47.69
19526;BME280;9907;42.676;26.348;2023-08-24T07:15:35;98848.09;;;29.40;48.29
19526;BME280;9907;42.676;26.348;2023-08-24T07:18:04;98832.59;;;29.71;47.04
19526;BME280;9907;42.676;26.348;2023-08-24T07:20:32;98834.16;;;29.89;46.54
19526;BME280;9907;42.676;26.348;2023-08-24T07:22:58;98835.84;;;30.05;47.12
19526;BME280;9907;42.676;26.348;2023-08-24T07:25:24;98825.13;;;30.09;46.50
19526;BME280;9907;42.676;26.348;2023-08-24T07:27:49;98820.28;;;30.36;46.29
19526;BME280;9907;42.676;26.348;2023-08-24T07:30:15;98822.56;;;30.44;45.80
19526;BME280;9907;42.676;26.348;2023-08-24T07:32:40;98828.09;;;30.54;45.94
19526;BME280;9907;42.676;26.348;2023-08-24T07:35:07;98824.28;;;30.70;44.88
19526;BME280;9907;42.676;26.348;2023-08-24T07:37:33;98824.28;;;30.75;45.17
19526;BME280;9907;42.676;26.348;2023-08-24T07:39:58;98824.91;;;31.18;44.23
19526;BME280;9907;42.676;26.348;2023-08-24T07:42:24;98815.50;;;31.09;44.56
19526;BME280;9907;42.676;26.348;2023-08-24T07:44:49;98816.06;;;31.36;43.91
19526;BME280;9907;42.676;26.348;2023-08-24T07:47:15;98817.16;;;31.50;43.62
19526;BME280;9907;42.676;26.348;2023-08-24T07:49:41;98817.72;;;31.27;43.42
19526;BME280;9907;42.676;26.348;2023-08-24T07:52:12;98813.31;;;31.31;43.59
19526;BME280;9907;42.676;26.348;2023-08-24T07:54:38;98811.91;;;31.69;42.80
19526;BME280;9907;42.676;26.348;2023-08-24T07:57:07;98811.56;;;31.85;42.17
19526;BME280;9907;42.676;26.348;2023-08-24T07:59:33;98798.25;;;32.13;41.99
19526;BME280;9907;42.676;26.348;2023-08-24T08:01:58;98801.78;;;32.28;42.36
19526;BME280;9907;42.676;26.348;2023-08-24T08:04:26;98801.44;;;32.40;41.69
19526;BME280;9907;42.676;26.348;2023-08-24T08:06:52;98795.84;;;32.50;41.44
19526;BME280;9907;42.676;26.348;2023-08-24T08:09:18;98791.38;;;32.64;41.52
19526;BME280;9907;42.676;26.348;2023-08-24T08:11:43;98798.78;;;32.74;40.71
19526;BME280;9907;42.676;26.348;2023-08-24T08:14:09;98796.06;;;32.64;40.38
19526;BME280;9907;42.676;26.348;2023-08-24T08:16:35;98785.28;;;32.57;40.82
19526;BME280;9907;42.676;26.348;2023-08-24T08:19:01;98793.28;;;32.69;40.76
19526;BME280;9907;42.676;26.348;2023-08-24T08:21:27;98791.50;;;32.83;40.92
19526;BME280;9907;42.676;26.348;2023-08-24T08:23:53;98785.00;;;33.03;40.56
19526;BME280;9907;42.676;26.348;2023-08-24T08:26:18;98787.09;;;33.21;40.00
19526;BME280;9907;42.676;26.348;2023-08-24T08:28:44;98782.97;;;33.18;39.53
19526;BME280;9907;42.676;26.348;2023-08-24T08:31:09;98779.66;;;33.16;40.38
19526;BME280;9907;42.676;26.348;2023-08-24T08:33:35;98774.25;;;33.30;39.88
19526;BME280;9907;42.676;26.348;2023-08-24T08:36:00;98772.56;;;33.34;39.94
19526;BME280;9907;42.676;26.348;2023-08-24T08:38:26;98774.31;;;33.54;39.80
19526;BME280;9907;42.676;26.348;2023-08-24T08:40:56;98769.88;;;33.53;39.46
19526;BME280;9907;42.676;26.348;2023-08-24T08:43:22;98760.13;;;33.60;39.89
19526;BME280;9907;42.676;26.348;2023-08-24T08:45:49;98758.97;;;33.90;39.50
19526;BME280;9907;42.676;26.348;2023-08-24T08:48:15;98765.50;;;33.75;38.96
19526;BME280;9907;42.676;26.348;2023-08-24T08:50:41;98767.69;;;33.79;38.69
19526;BME280;9907;42.676;26.348;2023-08-24T08:53:07;98763.28;;;33.78;38.38
19526;BME280;9907;42.676;26.348;2023-08-24T08:55:32;98759.78;;;33.91;38.73
19526;BME280;9907;42.676;26.348;2023-08-24T08:57:58;98752.13;;;34.06;38.89
19526;BME280;9907;42.676;26.348;2023-08-24T09:00:25;98755.72;;;34.07;37.91
19526;BME280;9907;42.676;26.348;2023-08-24T09:02:52;98756.97;;;33.96;38.18
19526;BME280;9907;42.676;26.348;2023-08-24T09:05:18;98743.13;;;33.96;37.71
19526;BME280;9907;42.676;26.348;2023-08-24T09:07:48;98755.84;;;34.20;37.46
19526;BME280;9907;42.676;26.348;2023-08-24T09:10:14;98747.16;;;34.27;37.98
19526;BME280;9907;42.676;26.348;2023-08-24T09:12:39;98748.38;;;34.58;37.35
19526;BME280;9907;42.676;26.348;2023-08-24T09:15:06;98745.00;;;34.61;37.77
19526;BME280;9907;42.676;26.348;2023-08-24T09:17:32;98741.84;;;34.68;37.54
19526;BME280;9907;42.676;26.348;2023-08-24T09:20:00;98751.66;;;34.60;37.19
19526;BME280;9907;42.676;26.348;2023-08-24T09:22:25;98747.41;;;34.68;37.23
19526;BME280;9907;42.676;26.348;2023-08-24T09:24:51;98740.88;;;34.78;37.41
19526;BME280;9907;42.676;26.348;2023-08-24T09:27:22;98740.94;;;34.54;37.25
19526;BME280;9907;42.676;26.348;2023-08-24T09:29:52;98741.63;;;34.83;37.22
19526;BME280;9907;42.676;26.348;2023-08-24T09:32:22;98735.25;;;34.83;36.95
19526;BME280;9907;42.676;26.348;2023-08-24T09:34:50;98732.50;;;34.64;37.03
19526;BME280;9907;42.676;26.348;2023-08-24T09:37:16;98724.09;;;34.50;36.98
19526;BME280;9907;42.676;26.348;2023-08-24T09:39:42;98727.00;;;34.78;37.51
19526;BME280;9907;42.676;26.348;2023-08-24T09:42:08;98715.84;;;34.45;36.86
19526;BME280;9907;42.676;26.348;2023-08-24T09:44:33;98720.78;;;34.48;36.99
19526;BME280;9907;42.676;26.348;2023-08-24T09:46:59;98703.31;;;34.66;37.36
19526;BME280;9907;42.676;26.348;2023-08-24T09:49:28;98708.75;;;34.90;37.07
19526;BME280;9907;42.676;26.348;2023-08-24T09:51:57;98704.97;;;34.67;36.71
19526;BME280;9907;42.676;26.348;2023-08-24T09:54:26;98705.19;;;34.71;36.65
19526;BME280;9907;42.676;26.348;2023-08-24T09:56:54;98707.28;;;34.79;37.16
19526;BME280;9907;42.676;26.348;2023-08-24T09:59:21;98705.34;;;34.80;37.82
19526;BME280;9907;42.676;26.348;2023-08-24T10:01:51;98695.22;;;35.02;37.87
19526;BME280;9907;42.676;26.348;2023-08-24T10:04:29;98699.59;;;35.22;37.34
19526;BME280;9907;42.676;26.348;2023-08-24T10:07:08;98685.13;;;34.93;36.58
19526;BME280;9907;42.676;26.348;2023-08-24T10:09:57;98685.63;;;34.81;36.46
19526;BME280;9907;42.676;26.348;2023-08-24T10:12:27;98684.66;;;34.53;37.22
19526;BME280;9907;42.676;26.348;2023-08-24T10:14:59;98668.25;;;34.38;37.22
19526;BME280;9907;42.676;26.348;2023-08-24T10:17:29;98677.78;;;34.32;37.43
19526;BME280;9907;42.676;26.348;2023-08-24T10:19:58;98681.22;;;34.24;36.95
19526;BME280;9907;42.676;26.348;2023-08-24T10:22:28;98666.25;;;34.25;37.39
19526;BME280;9907;42.676;26.348;2023-08-24T10:24:54;98658.03;;;34.52;37.19
19526;BME280;9907;42.676;26.348;2023-08-24T10:27:22;98652.06;;;34.64;36.73
19526;BME280;9907;42.676;26.348;2023-08-24T10:29:47;98652.09;;;34.78;37.03
19526;BME280;9907;42.676;26.348;2023-08-24T10:32:13;98647.00;;;34.85;36.82
19526;BME280;9907;42.676;26.348;2023-08-24T10:34:39;98650.16;;;34.78;36.46
19526;BME280;9907;42.676;26.348;2023-08-24T10:37:08;98642.22;;;34.72;36.89
19526;BME280;9907;42.676;26.348;2023-08-24T10:39:44;98642.84;;;34.68;36.36
19526;BME280;9907;42.676;26.348;2023-08-24T10:42:11;98630.84;;;34.73;36.70
19526;BME280;9907;42.676;26.348;2023-08-24T10:44:39;98630.31;;;34.52;36.54
19526;BME280;9907;42.676;26.348;2023-08-24T10:47:21;98637.94;;;34.60;36.63
19526;BME280;9907;42.676;26.348;2023-08-24T10:52:24;98650.78;;;34.89;36.30
19526;BME280;9907;42.676;26.348;2023-08-24T10:54:53;98675.09;;;33.66;46.22
19526;BME280;9907;42.676;26.348;2023-08-24T10:57:40;98675.41;;;31.01;52.55
19526;BME280;9907;42.676;26.348;2023-08-24T11:00:11;98684.22;;;30.72;54.73
19526;BME280;9907;42.676;26.348;2023-08-24T11:02:48;98671.00;;;31.00;54.32
19526;BME280;9907;42.676;26.348;2023-08-24T11:05:20;98665.69;;;31.33;53.72
19526;BME280;9907;42.676;26.348;2023-08-24T11:07:58;98667.56;;;31.53;52.98
19526;BME280;9907;42.676;26.348;2023-08-24T11:10:45;98670.31;;;31.53;53.88
19526;BME280;9907;42.676;26.348;2023-08-24T11:13:17;98666.84;;;31.22;54.03
19526;BME280;9907;42.676;26.348;2023-08-24T11:27:59;98676.78;;;30.58;53.88
19526;BME280;9907;42.676;26.348;2023-08-24T11:30:25;98676.50;;;30.64;56.59
19526;BME280;9907;42.676;26.348;2023-08-24T11:32:54;98656.94;;;30.66;55.53
19526;BME280;9907;42.676;26.348;2023-08-24T11:35:20;98656.13;;;30.70;56.51
19526;BME280;9907;42.676;26.348;2023-08-24T11:37:52;98647.81;;;30.40;59.18
19526;BME280;9907;42.676;26.348;2023-08-24T11:40:17;98644.78;;;30.41;58.73
19526;BME280;9907;42.676;26.348;2023-08-24T12:23:03;98580.31;;;30.68;62.21
19526;BME280;9907;42.676;26.348;2023-08-24T12:25:29;98574.53;;;30.69;59.19
19526;BME280;9907;42.676;26.348;2023-08-24T12:28:14;98579.22;;;30.59;58.37
19526;BME280;9907;42.676;26.348;2023-08-24T12:30:48;98582.28;;;30.47;58.11
19526;BME280;9907;42.676;26.348;2023-08-24T12:33:27;98582.28;;;30.47;57.38
19526;BME280;9907;42.676;26.348;2023-08-24T12:35:54;98581.44;;;30.52;57.76
19526;BME280;9907;42.676;26.348;2023-08-24T12:38:24;98578.13;;;30.50;58.64
19526;BME280;9907;42.676;26.348;2023-08-24T12:40:50;98580.34;;;30.42;60.53
19526;BME280;9907;42.676;26.348;2023-08-24T12:43:16;98574.53;;;30.49;60.38
19526;BME280;9907;42.676;26.348;2023-08-24T12:45:41;98572.03;;;30.68;60.40
19526;BME280;9907;42.676;26.348;2023-08-24T12:48:07;98574.22;;;30.81;58.11
19526;BME280;9907;42.676;26.348;2023-08-24T12:50:34;98564.00;;;30.97;58.50
19526;BME280;9907;42.676;26.348;2023-08-24T12:52:59;98561.50;;;31.10;56.45
19526;BME280;9907;42.676;26.348;2023-08-24T12:55:28;98563.09;;;31.21;56.58
19526;BME280;9907;42.676;26.348;2023-08-24T12:57:54;98560.59;;;31.30;57.44
19526;BME280;9907;42.676;26.348;2023-08-24T13:00:20;98552.00;;;31.36;55.59
19526;BME280;9907;42.676;26.348;2023-08-24T13:02:47;98551.16;;;31.41;55.34
19526;BME280;9907;42.676;26.348;2023-08-24T13:05:13;98551.94;;;31.47;56.27
19526;BME280;9907;42.676;26.348;2023-08-24T13:07:38;98549.69;;;31.59;55.17
19526;BME280;9907;42.676;26.348;2023-08-24T13:10:04;98548.78;;;31.68;54.02
19526;BME280;9907;42.676;26.348;2023-08-24T13:12:31;98554.81;;;31.75;51.88
19526;BME280;9907;42.676;26.348;2023-08-24T13:14:57;98558.97;;;31.78;52.00
19526;BME280;9907;42.676;26.348;2023-08-24T13:17:22;98550.94;;;31.81;49.27
19526;BME280;9907;42.676;26.348;2023-08-24T13:19:48;98553.69;;;31.81;48.72
19526;BME280;9907;42.676;26.348;2023-08-24T13:22:16;98551.47;;;31.83;47.88
19526;BME280;9907;42.676;26.348;2023-08-24T13:24:42;98547.75;;;32.03;47.32
19526;BME280;9907;42.676;26.348;2023-08-24T13:27:11;98549.00;;;32.21;46.92
19526;BME280;9907;42.676;26.348;2023-08-24T13:29:37;98552.00;;;32.24;44.28
19526;BME280;9907;42.676;26.348;2023-08-24T13:32:03;98559.44;;;32.29;45.03
19526;BME280;9907;42.676;26.348;2023-08-24T13:34:29;98574.22;;;32.43;43.16
19526;BME280;9907;42.676;26.348;2023-08-24T13:36:55;98587.22;;;32.43;43.77
19526;BME280;9907;42.676;26.348;2023-08-24T13:39:21;98578.09;;;32.42;44.08
19526;BME280;9907;42.676;26.348;2023-08-24T13:41:46;98569.91;;;32.32;45.51
19526;BME280;9907;42.676;26.348;2023-08-24T13:44:12;98565.53;;;32.26;43.82
19526;BME280;9907;42.676;26.348;2023-08-24T13:46:38;98570.50;;;32.24;44.40
19526;BME280;9907;42.676;26.348;2023-08-24T13:49:04;98592.00;;;32.32;42.89
19526;BME280;9907;42.676;26.348;2023-08-24T13:51:29;98669.09;;;32.33;42.54
19526;BME280;9907;42.676;26.348;2023-08-24T13:53:55;98642.09;;;31.71;45.53
19526;BME280;9907;42.676;26.348;2023-08-24T13:56:20;98666.56;;;31.14;46.96
19526;BME280;9907;42.676;26.348;2023-08-24T13:58:46;98693.31;;;30.83;48.25
19526;BME280;9907;42.676;26.348;2023-08-24T14:01:12;98716.47;;;30.57;49.32